createdAt,value
2023-03-06T00:00:24.921Z,0
2023-03-06T00:01:25.167Z,0
2023-03-06T00:02:25.147Z,0
2023-03-06T00:03:25.653Z,0
2023-03-06T00:04:25.140Z,0
2023-03-06T00:05:25.378Z,0
2023-03-06T00:06:25.359Z,0
2023-03-06T00:07:24.999Z,0
2023-03-06T00:08:24.968Z,0
2023-03-06T00:09:24.952Z,0
2023-03-06T00:10:25.301Z,0
2023-03-06T00:11:24.941Z,0
2023-03-06T00:12:25.157Z,0
2023-03-06T00:13:24.624Z,0
2023-03-06T00:14:24.850Z,0
2023-03-06T00:15:24.858Z,0
2023-03-06T00:16:25.157Z,0
2023-03-06T00:17:24.840Z,0
2023-03-06T00:18:24.790Z,0
2023-03-06T00:19:24.487Z,0
2023-03-06T00:20:25.077Z,0
2023-03-06T00:21:25.080Z,0
2023-03-06T00:22:24.433Z,0
2023-03-06T00:23:24.670Z,0
2023-03-06T00:24:24.389Z,0
2023-03-06T00:25:24.437Z,0
2023-03-06T00:26:24.866Z,0
2023-03-06T00:27:24.341Z,0
2023-03-06T00:28:24.774Z,0
2023-03-06T00:29:24.810Z,0
2023-03-06T00:30:24.041Z,0
2023-03-06T00:31:24.950Z,0
2023-03-06T00:32:24.689Z,0
2023-03-06T00:33:24.780Z,0
2023-03-06T00:34:24.459Z,0
2023-03-06T00:35:24.422Z,0
2023-03-06T00:36:24.477Z,0
2023-03-06T00:37:24.805Z,0
2023-03-06T00:38:24.380Z,0
2023-03-06T00:39:24.352Z,0
2023-03-06T00:40:24.367Z,0
2023-03-06T00:41:24.294Z,0
2023-03-06T00:42:24.284Z,0
2023-03-06T00:43:23.981Z,0
2023-03-06T00:44:24.260Z,0
2023-03-06T00:45:24.026Z,0
2023-03-06T00:46:24.192Z,0
2023-03-06T00:47:24.286Z,0
2023-03-06T00:48:23.658Z,0
2023-03-06T00:49:23.905Z,0
2023-03-06T00:50:24.168Z,0
2023-03-06T00:51:23.847Z,0
2023-03-06T00:52:24.417Z,0
2023-03-06T00:53:24.373Z,0
2023-03-06T00:54:24.297Z,0
2023-03-06T00:55:24.041Z,0
2023-03-06T00:56:27.003Z,0
2023-03-06T00:57:23.966Z,0
2023-03-06T00:58:23.950Z,0
2023-03-06T00:59:24.217Z,0
2023-03-06T01:00:23.645Z,0
2023-03-06T01:01:24.445Z,0
2023-03-06T01:02:24.443Z,0
2023-03-06T01:03:23.603Z,0
2023-03-06T01:04:23.842Z,0
2023-03-06T01:05:23.368Z,0
2023-03-06T01:06:24.058Z,0
2023-03-06T01:07:23.520Z,0
2023-03-06T01:08:24.079Z,0
2023-03-06T01:09:24.014Z,0
2023-03-06T01:10:23.696Z,0
2023-03-06T01:11:23.222Z,0
2023-03-06T01:12:25.864Z,0
2023-03-06T01:13:23.653Z,0
2023-03-06T01:14:23.928Z,0
2023-03-06T01:15:23.904Z,0
2023-03-06T01:16:23.730Z,0
2023-03-06T01:17:23.309Z,0
2023-03-06T01:18:23.545Z,0
2023-03-06T01:19:23.791Z,0
2023-03-06T01:20:23.748Z,0
2023-03-06T01:21:23.214Z,0
2023-03-06T01:22:23.433Z,0
2023-03-06T01:23:23.440Z,0
2023-03-06T01:24:23.747Z,0
2023-03-06T01:25:23.706Z,0
2023-03-06T01:26:23.117Z,0
2023-03-06T01:27:23.105Z,0
2023-03-06T01:28:22.846Z,0
2023-03-06T01:29:23.317Z,0
2023-03-06T01:30:23.032Z,0
2023-03-06T01:31:23.662Z,0
2023-03-06T01:32:23.515Z,0
2023-03-06T01:33:55.279Z,0
2023-03-06T01:34:22.684Z,0
2023-03-06T01:35:23.043Z,0
2023-03-06T01:36:23.410Z,0
2023-03-06T01:37:23.387Z,0
2023-03-06T01:38:22.877Z,0
2023-03-06T01:39:23.349Z,0
2023-03-06T01:40:23.450Z,0
2023-03-06T01:41:23.389Z,0
2023-03-06T01:42:23.111Z,0
2023-03-06T01:43:23.011Z,0
2023-03-06T01:44:23.400Z,0
2023-03-06T01:45:22.496Z,0
2023-03-06T01:46:23.372Z,0
2023-03-06T01:47:22.681Z,0
2023-03-06T01:48:22.896Z,0
2023-03-06T01:49:23.170Z,0
2023-03-06T01:50:22.889Z,0
2023-03-06T01:51:22.886Z,0
2023-03-06T01:52:23.135Z,0
2023-03-06T01:53:22.801Z,0
2023-03-06T01:54:22.778Z,0
2023-03-06T01:55:23.024Z,0
2023-03-06T01:56:22.553Z,0
2023-03-06T01:57:23.026Z,0
2023-03-06T01:58:22.438Z,0
2023-03-06T01:59:22.687Z,0
2023-03-06T02:00:22.670Z,0
2023-03-06T02:01:23.238Z,0
2023-03-06T02:02:23.195Z,0
2023-03-06T02:03:22.333Z,0
2023-03-06T02:04:22.579Z,0
2023-03-06T02:05:22.587Z,0
2023-03-06T02:06:22.345Z,0
2023-03-06T02:07:22.770Z,0
2023-03-06T02:08:22.246Z,0
2023-03-06T02:09:22.728Z,0
2023-03-06T02:10:22.205Z,0
2023-03-06T02:11:23.063Z,0
2023-03-06T02:12:22.760Z,0
2023-03-06T02:13:22.708Z,0
2023-03-06T02:14:22.154Z,0
2023-03-06T02:15:22.608Z,0
2023-03-06T02:16:22.496Z,0
2023-03-06T02:17:22.077Z,0
2023-03-06T02:18:22.031Z,0
2023-03-06T02:19:22.571Z,0
2023-03-06T02:20:21.745Z,0
2023-03-06T02:21:21.973Z,0
2023-03-06T02:22:22.238Z,0
2023-03-06T02:23:21.690Z,0
2023-03-06T02:24:21.422Z,0
2023-03-06T02:25:22.189Z,0
2023-03-06T02:26:22.212Z,0
2023-03-06T02:27:21.864Z,0
2023-03-06T02:28:22.448Z,0
2023-03-06T02:29:22.107Z,0
2023-03-06T02:30:22.338Z,0
2023-03-06T02:31:22.542Z,0
2023-03-06T02:32:22.621Z,0
2023-03-06T02:33:21.766Z,0
2023-03-06T02:34:22.001Z,0
2023-03-06T02:35:21.733Z,0
2023-03-06T02:36:22.183Z,0
2023-03-06T02:37:21.687Z,0
2023-03-06T02:38:21.710Z,0
2023-03-06T02:39:22.121Z,0
2023-03-06T02:40:21.854Z,0
2023-03-06T02:41:22.094Z,0
2023-03-06T02:42:21.794Z,0
2023-03-06T02:43:21.789Z,0
2023-03-06T02:44:21.843Z,0
2023-03-06T02:45:22.055Z,0
2023-03-06T02:46:22.110Z,0
2023-03-06T02:47:21.991Z,0
2023-03-06T02:48:21.682Z,0
2023-03-06T02:49:21.924Z,0
2023-03-06T02:50:21.889Z,0
2023-03-06T02:51:21.381Z,0
2023-03-06T02:52:21.346Z,0
2023-03-06T02:53:21.862Z,0
2023-03-06T02:54:21.838Z,0
2023-03-06T02:55:21.799Z,0
2023-03-06T02:56:21.779Z,0
2023-03-06T02:57:21.526Z,0
2023-03-06T02:58:21.229Z,0
2023-03-06T02:59:21.454Z,0
2023-03-06T03:00:21.597Z,0
2023-03-06T03:01:21.712Z,0
2023-03-06T03:02:21.145Z,0
2023-03-06T03:03:21.124Z,0
2023-03-06T03:04:21.880Z,0
2023-03-06T03:05:21.364Z,0
2023-03-06T03:06:21.347Z,0
2023-03-06T03:07:21.054Z,0
2023-03-06T03:08:21.285Z,0
2023-03-06T03:09:21.009Z,0
2023-03-06T03:10:20.978Z,0
2023-03-06T03:11:20.982Z,0
2023-03-06T03:12:21.198Z,0
2023-03-06T03:13:21.439Z,0
2023-03-06T03:14:20.900Z,0
2023-03-06T03:15:21.431Z,0
2023-03-06T03:16:21.715Z,0
2023-03-06T03:17:21.395Z,0
2023-03-06T03:18:20.830Z,0
2023-03-06T03:19:21.064Z,0
2023-03-06T03:20:21.313Z,0
2023-03-06T03:21:21.284Z,0
2023-03-06T03:22:20.988Z,0
2023-03-06T03:23:20.982Z,0
2023-03-06T03:24:20.648Z,0
2023-03-06T03:25:20.969Z,0
2023-03-06T03:26:20.977Z,0
2023-03-06T03:27:20.949Z,0
2023-03-06T03:28:20.896Z,0
2023-03-06T03:29:20.659Z,0
2023-03-06T03:30:20.613Z,0
2023-03-06T03:31:21.011Z,0
2023-03-06T03:32:21.098Z,0
2023-03-06T03:49:54.277Z,0
2023-03-06T03:50:53.706Z,0
2023-03-06T03:51:54.065Z,0
2023-03-06T03:52:53.773Z,0
2023-03-06T03:53:54.074Z,0
2023-03-06T03:54:53.479Z,0
2023-03-06T03:55:53.945Z,0
2023-03-06T03:56:53.447Z,0
2023-03-06T03:57:53.681Z,0
2023-03-06T03:58:53.631Z,0
2023-03-06T03:59:53.885Z,0
2023-03-06T04:00:53.592Z,0
2023-03-06T04:01:53.737Z,0
2023-03-06T04:02:53.296Z,0
2023-03-06T04:03:53.541Z,0
2023-03-06T04:04:53.800Z,0
2023-03-06T04:05:53.870Z,0
2023-03-06T04:06:53.498Z,0
2023-03-06T04:07:53.717Z,0
2023-03-06T04:08:52.947Z,0
2023-03-06T04:09:53.405Z,0
2023-03-06T04:10:53.139Z,0
2023-03-06T04:11:53.698Z,0
2023-03-06T04:12:53.604Z,0
2023-03-06T04:13:53.612Z,0
2023-03-06T04:14:53.044Z,0
2023-03-06T04:15:53.590Z,0
2023-03-06T04:16:53.269Z,0
2023-03-06T04:17:53.259Z,0
2023-03-06T04:18:53.466Z,0
2023-03-06T04:19:53.215Z,0
2023-03-06T04:20:53.459Z,0
2023-03-06T04:21:53.568Z,0
2023-03-06T04:22:53.140Z,0
2023-03-06T04:23:53.105Z,0
2023-03-06T04:24:52.793Z,0
2023-03-06T04:25:53.095Z,0
2023-03-06T04:26:53.383Z,0
2023-03-06T04:27:53.285Z,0
2023-03-06T04:28:53.049Z,0
2023-03-06T04:29:52.784Z,0
2023-03-06T04:30:53.239Z,0
2023-03-06T04:31:52.421Z,0
2023-03-06T04:32:52.761Z,0
2023-03-06T04:33:52.665Z,0
2023-03-06T04:34:53.181Z,0
2023-03-06T04:35:52.764Z,0
2023-03-06T04:36:53.111Z,0
2023-03-06T04:37:53.439Z,0
2023-03-06T04:38:52.696Z,0
2023-03-06T04:39:52.543Z,0
2023-03-06T04:40:54.690Z,0
2023-03-06T04:41:53.644Z,0
2023-03-06T04:42:53.485Z,0
2023-03-06T04:43:53.469Z,0
2023-03-06T04:44:53.241Z,0
2023-03-06T04:45:53.160Z,0
2023-03-06T04:46:53.343Z,0
2023-03-06T04:47:52.548Z,0
2023-03-06T04:48:52.737Z,0
2023-03-06T04:49:53.268Z,0
2023-03-06T04:50:52.962Z,0
2023-03-06T04:51:53.345Z,0
2023-03-06T04:52:52.920Z,0
2023-03-06T04:53:53.308Z,0
2023-03-06T04:54:52.668Z,0
2023-03-06T04:55:52.901Z,0
2023-03-06T04:56:53.090Z,0
2023-03-06T04:57:52.964Z,0
2023-03-06T04:58:53.061Z,0
2023-03-06T04:59:52.802Z,0
2023-03-06T05:00:52.807Z,0
2023-03-06T05:01:52.835Z,0
2023-03-06T05:02:52.514Z,0
2023-03-06T05:03:52.494Z,0
2023-03-06T05:04:52.671Z,0
2023-03-06T05:05:52.682Z,0
2023-03-06T05:06:52.923Z,0
2023-03-06T05:07:52.897Z,0
2023-03-06T05:08:52.890Z,0
2023-03-06T05:09:52.998Z,0
2023-03-06T05:10:52.725Z,0
2023-03-06T05:11:52.537Z,0
2023-03-06T05:12:52.260Z,0
2023-03-06T05:13:52.760Z,0
2023-03-06T05:14:55.213Z,0
2023-03-06T05:15:52.452Z,0
2023-03-06T05:16:52.790Z,0
2023-03-06T05:17:52.432Z,0
2023-03-06T05:18:55.064Z,0
2023-03-06T05:19:52.637Z,0
2023-03-06T05:20:52.623Z,0
2023-03-06T05:21:52.591Z,0
2023-03-06T05:22:52.604Z,0
2023-03-06T05:23:52.310Z,0
2023-03-06T05:24:52.531Z,0
2023-03-06T05:25:52.652Z,0
2023-03-06T05:26:51.986Z,0
2023-03-06T05:27:52.253Z,0
2023-03-06T05:28:51.958Z,0
2023-03-06T05:29:52.192Z,0
2023-03-06T05:30:52.278Z,0
2023-03-06T05:31:52.453Z,0
2023-03-06T05:32:52.686Z,0
2023-03-06T05:33:52.091Z,0
2023-03-06T05:34:51.827Z,0
2023-03-06T05:35:52.108Z,0
2023-03-06T05:36:52.285Z,0
2023-03-06T05:37:52.706Z,0
2023-03-06T05:38:52.014Z,0
2023-03-06T05:39:51.990Z,0
2023-03-06T05:40:51.982Z,0
2023-03-06T05:41:52.324Z,0
2023-03-06T05:42:51.969Z,0
2023-03-06T05:43:51.911Z,0
2023-03-06T05:44:51.379Z,0
2023-03-06T05:45:52.338Z,0
2023-03-06T05:46:51.565Z,0
2023-03-06T05:47:51.855Z,0
2023-03-06T05:48:53.361Z,0
2023-03-06T05:49:51.790Z,0
2023-03-06T05:50:52.056Z,0
2023-03-06T05:51:51.778Z,0
2023-03-06T05:52:51.780Z,0
2023-03-06T05:53:51.945Z,5
2023-03-06T05:54:51.415Z,5
2023-03-06T05:55:51.926Z,5
2023-03-06T05:56:52.331Z,5
2023-03-06T05:57:52.007Z,5
2023-03-06T05:58:51.620Z,5
2023-03-06T05:59:53.199Z,5
2023-03-06T06:00:51.806Z,5
2023-03-06T06:01:51.804Z,5
2023-03-06T06:02:51.498Z,5
2023-03-06T06:03:51.783Z,5
2023-03-06T06:04:51.232Z,5
2023-03-06T06:05:51.457Z,10
2023-03-06T06:06:51.707Z,10
2023-03-06T06:07:51.453Z,10
2023-03-06T06:08:51.693Z,10
2023-03-06T06:09:51.660Z,10
2023-03-06T06:10:54.285Z,10
2023-03-06T06:11:51.372Z,10
2023-03-06T06:12:51.631Z,15
2023-03-06T06:13:51.712Z,15
2023-03-06T06:14:51.564Z,15
2023-03-06T06:15:51.642Z,15
2023-03-06T06:16:51.010Z,20
2023-03-06T06:17:51.017Z,20
2023-03-06T06:18:51.468Z,20
2023-03-06T06:19:51.196Z,15
2023-03-06T06:20:50.923Z,15
2023-03-06T06:21:51.146Z,15
2023-03-06T06:22:50.911Z,20
2023-03-06T06:23:51.217Z,20
2023-03-06T06:24:50.857Z,20
2023-03-06T06:25:51.090Z,20
2023-03-06T06:26:51.122Z,25
2023-03-06T06:27:50.776Z,25
2023-03-06T06:28:50.790Z,25
2023-03-06T06:29:51.377Z,30
2023-03-06T06:30:51.375Z,25
2023-03-06T06:31:51.314Z,30
2023-03-06T06:32:51.301Z,30
2023-03-06T06:33:51.213Z,30
2023-03-06T06:34:51.188Z,30
2023-03-06T06:35:51.396Z,25
2023-03-06T06:36:53.560Z,25
2023-03-06T06:37:51.147Z,20
2023-03-06T06:38:50.609Z,25
2023-03-06T06:39:50.288Z,25
2023-03-06T06:42:15.355Z,30
2023-03-06T06:42:46.898Z,30
2023-03-06T06:43:35.363Z,35
2023-03-06T06:44:35.854Z,35
2023-03-06T06:45:35.954Z,35
2023-03-06T06:47:31.732Z,35
2023-03-06T06:47:41.943Z,35
2023-03-06T06:48:41.511Z,25
2023-03-06T06:49:41.487Z,20
2023-03-06T06:50:41.470Z,20
2023-03-06T06:51:41.010Z,20
2023-03-06T06:52:41.453Z,20
2023-03-06T06:53:40.642Z,20
2023-03-06T06:54:41.371Z,25
2023-03-06T06:55:41.085Z,25
2023-03-06T06:56:41.086Z,25
2023-03-06T06:57:41.248Z,25
2023-03-06T06:58:41.051Z,25
2023-03-06T06:59:41.321Z,25
2023-03-06T07:00:41.429Z,25
2023-03-06T07:01:41.229Z,25
2023-03-06T07:02:40.978Z,25
2023-03-06T07:03:41.528Z,25
2023-03-06T07:05:02.310Z,30
2023-03-06T07:05:40.930Z,30
2023-03-06T07:06:40.632Z,35
2023-03-06T07:07:40.922Z,35
2023-03-06T07:08:40.571Z,35
2023-03-06T07:09:40.827Z,30
2023-03-06T07:10:41.094Z,30
2023-03-06T07:11:40.892Z,30
2023-03-06T07:12:40.270Z,30
2023-03-06T07:13:41.032Z,30
2023-03-06T07:14:40.982Z,30
2023-03-06T07:15:40.845Z,30
2023-03-06T07:16:41.204Z,30
2023-03-06T07:17:40.524Z,35
2023-03-06T07:18:41.860Z,40
2023-03-06T07:19:43.174Z,40
2023-03-06T07:20:41.665Z,35
2023-03-06T07:21:41.610Z,35
2023-03-06T07:22:59.192Z,30
2023-03-06T07:23:41.824Z,30
2023-03-06T07:24:41.581Z,30
2023-03-06T07:25:41.916Z,30
2023-03-06T07:26:43.896Z,25
2023-03-06T07:27:41.943Z,25
2023-03-06T07:28:59.901Z,30
2023-03-06T07:29:41.370Z,30
2023-03-06T07:30:41.296Z,30
2023-03-06T07:31:41.531Z,30
2023-03-06T07:32:42.136Z,35
2023-03-06T07:33:41.428Z,35
2023-03-06T07:34:41.650Z,35
2023-03-06T07:35:41.343Z,35
2023-03-06T07:36:41.416Z,35
2023-03-06T07:37:41.332Z,35
2023-03-06T07:38:41.320Z,35
2023-03-06T07:39:41.276Z,40
2023-03-06T07:40:41.258Z,40
2023-03-06T07:41:41.233Z,50
2023-03-06T07:42:41.443Z,60
2023-03-06T07:43:41.288Z,65
2023-03-06T07:44:41.439Z,75
2023-03-06T07:45:41.125Z,80
2023-03-06T07:46:41.139Z,90
2023-03-06T07:47:41.122Z,90
2023-03-06T07:48:41.556Z,90
2023-03-06T07:49:41.343Z,90
2023-03-06T07:50:40.795Z,95
2023-03-06T07:51:41.292Z,100
2023-03-06T07:52:41.031Z,110
2023-03-06T07:53:41.067Z,120
2023-03-06T07:54:40.717Z,130
2023-03-06T07:55:40.978Z,135
2023-03-06T07:56:40.943Z,130
2023-03-06T07:57:40.689Z,145
2023-03-06T07:58:41.287Z,140
2023-03-06T07:59:40.657Z,140
2023-03-06T08:00:40.924Z,140
2023-03-06T08:01:41.467Z,150
2023-03-06T08:02:40.798Z,140
2023-03-06T08:03:40.954Z,130
2023-03-06T08:04:41.159Z,125
2023-03-06T08:05:40.303Z,120
2023-03-06T08:06:40.774Z,110
2023-03-06T08:07:40.466Z,100
2023-03-06T08:08:40.802Z,105
2023-03-06T08:09:40.684Z,105
2023-03-06T08:10:40.436Z,100
2023-03-06T08:11:40.454Z,95
2023-03-06T08:12:40.622Z,100
2023-03-06T08:13:40.352Z,115
2023-03-06T08:14:40.359Z,120
2023-03-06T08:15:40.819Z,125
2023-03-06T08:16:41.014Z,130
2023-03-06T08:17:40.555Z,135
2023-03-06T08:18:40.532Z,130
2023-03-06T08:19:40.505Z,130
2023-03-06T08:20:40.828Z,135
2023-03-06T08:21:39.957Z,140
2023-03-06T08:22:40.698Z,145
2023-03-06T08:23:40.168Z,155
2023-03-06T08:24:40.665Z,155
2023-03-06T08:25:40.627Z,165
2023-03-06T08:26:39.855Z,170
2023-03-06T08:27:40.139Z,175
2023-03-06T08:28:40.364Z,180
2023-03-06T08:29:41.970Z,190
2023-03-06T08:30:40.067Z,190
2023-03-06T08:31:40.282Z,190
2023-03-06T08:32:40.949Z,190
2023-03-06T08:33:40.529Z,190
2023-03-06T08:34:40.229Z,190
2023-03-06T08:35:39.850Z,195
2023-03-06T08:36:40.593Z,190
2023-03-06T08:37:40.821Z,185
2023-03-06T08:38:40.171Z,180
2023-03-06T08:39:40.106Z,180
2023-03-06T08:40:40.098Z,190
2023-03-06T08:41:39.870Z,195
2023-03-06T08:42:40.082Z,200
2023-03-06T08:43:40.024Z,190
2023-03-06T08:44:40.187Z,190
2023-03-06T08:45:39.926Z,200
2023-03-06T08:46:39.735Z,205
2023-03-06T08:47:39.778Z,205
2023-03-06T08:48:39.941Z,205
2023-03-06T08:49:39.690Z,190
2023-03-06T08:50:39.929Z,190
2023-03-06T08:51:39.656Z,200
2023-03-06T08:52:40.271Z,220
2023-03-06T08:53:52.070Z,225
2023-03-06T08:54:39.848Z,220
2023-03-06T08:55:39.812Z,215
2023-03-06T08:56:39.330Z,205
2023-03-06T08:57:39.535Z,205
2023-03-06T08:58:39.768Z,205
2023-03-06T08:59:40.065Z,205
2023-03-06T09:00:39.819Z,215
2023-03-06T09:01:40.506Z,205
2023-03-06T09:02:40.356Z,210
2023-03-06T09:03:39.952Z,210
2023-03-06T09:04:39.916Z,205
2023-03-06T09:05:39.383Z,215
2023-03-06T09:06:39.906Z,225
2023-03-06T09:07:39.714Z,235
2023-03-06T09:08:39.932Z,250
2023-03-06T09:09:39.293Z,260
2023-03-06T09:10:39.802Z,265
2023-03-06T09:11:39.281Z,270
2023-03-06T09:12:59.242Z,280
2023-03-06T09:13:39.517Z,280
2023-03-06T09:14:39.483Z,275
2023-03-06T09:15:39.720Z,265
2023-03-06T09:16:39.385Z,280
2023-03-06T09:17:39.707Z,290
2023-03-06T09:18:39.633Z,300
2023-03-06T09:19:39.115Z,310
2023-03-06T09:20:39.598Z,305
2023-03-06T09:21:39.395Z,290
2023-03-06T09:22:39.610Z,270
2023-03-06T09:23:39.681Z,280
2023-03-06T09:24:39.799Z,285
2023-03-06T09:25:39.278Z,300
2023-03-06T09:26:56.438Z,280
2023-03-06T09:27:40.096Z,280
2023-03-06T09:28:39.357Z,275
2023-03-06T09:29:39.261Z,280
2023-03-06T09:30:39.707Z,270
2023-03-06T09:31:39.492Z,255
2023-03-06T09:32:39.833Z,240
2023-03-06T09:33:39.425Z,225
2023-03-06T09:34:39.706Z,250
2023-03-06T09:35:39.623Z,255
2023-03-06T09:37:02.023Z,215
2023-03-06T09:37:39.370Z,225
2023-03-06T09:38:39.623Z,240
2023-03-06T09:39:39.400Z,225
2023-03-06T09:40:39.981Z,230
2023-03-06T09:41:39.560Z,245
2023-03-06T09:42:40.690Z,235
2023-03-06T09:43:39.532Z,255
2023-03-06T09:44:39.771Z,260
2023-03-06T09:45:39.681Z,245
2023-03-06T09:46:39.240Z,275
2023-03-06T09:47:39.718Z,275
2023-03-06T09:48:39.427Z,290
2023-03-06T09:49:39.420Z,285
2023-03-06T09:50:39.392Z,275
2023-03-06T09:51:39.371Z,270
2023-03-06T09:52:39.389Z,280
2023-03-06T09:53:39.604Z,260
2023-03-06T09:54:38.828Z,275
2023-03-06T09:55:39.322Z,285
2023-03-06T09:56:39.658Z,275
2023-03-06T09:57:39.541Z,275
2023-03-06T09:58:39.490Z,260
2023-03-06T09:59:39.222Z,270
2023-03-06T10:00:39.235Z,255
2023-03-06T10:01:39.221Z,245
2023-03-06T10:02:40.321Z,250
2023-03-06T10:03:39.391Z,265
2023-03-06T10:04:39.523Z,295
2023-03-06T10:05:38.878Z,315
2023-03-06T10:06:39.388Z,315
2023-03-06T10:07:38.837Z,315
2023-03-06T10:08:39.065Z,325
2023-03-06T10:09:38.806Z,320
2023-03-06T10:10:39.040Z,325
2023-03-06T10:11:39.010Z,340
2023-03-06T10:12:39.540Z,340
2023-03-06T10:13:39.241Z,315
2023-03-06T10:14:38.448Z,335
2023-03-06T10:15:39.053Z,325
2023-03-06T10:16:38.936Z,325
2023-03-06T10:17:40.747Z,305
2023-03-06T10:18:38.901Z,330
2023-03-06T10:19:38.686Z,325
2023-03-06T10:20:38.879Z,330
2023-03-06T10:21:39.947Z,335
2023-03-06T10:22:39.673Z,350
2023-03-06T10:23:39.631Z,365
2023-03-06T10:24:39.418Z,365
2023-03-06T10:25:39.866Z,360
2023-03-06T10:26:40.471Z,350
2023-03-06T10:27:39.619Z,350
2023-03-06T10:28:42.694Z,350
2023-03-06T10:29:42.158Z,325
2023-03-06T10:30:39.321Z,305
2023-03-06T10:31:39.756Z,300
2023-03-06T10:32:56.940Z,315
2023-03-06T10:33:39.478Z,325
2023-03-06T10:34:39.470Z,340
2023-03-06T10:35:39.702Z,345
2023-03-06T10:36:39.186Z,340
2023-03-06T10:37:40.752Z,325
2023-03-06T10:38:39.749Z,290
2023-03-06T10:39:39.442Z,250
2023-03-06T10:40:39.368Z,235
2023-03-06T10:41:39.609Z,230
2023-03-06T10:42:39.420Z,235
2023-03-06T10:43:42.150Z,240
2023-03-06T10:44:39.941Z,235
2023-03-06T10:45:56.272Z,265
2023-03-06T10:46:39.980Z,290
2023-03-06T10:47:39.535Z,310
2023-03-06T10:48:41.665Z,305
2023-03-06T10:49:39.332Z,275
2023-03-06T10:50:39.459Z,265
2023-03-06T10:51:39.197Z,270
2023-03-06T10:52:38.924Z,270
2023-03-06T10:53:39.134Z,255
2023-03-06T10:54:38.874Z,225
2023-03-06T10:55:39.427Z,225
2023-03-06T10:56:38.854Z,210
2023-03-06T10:57:39.285Z,205
2023-03-06T10:58:39.239Z,195
2023-03-06T10:59:39.197Z,205
2023-03-06T11:00:40.077Z,235
2023-03-06T11:01:39.647Z,260
2023-03-06T11:02:39.478Z,240
2023-03-06T11:03:39.156Z,235
2023-03-06T11:04:39.775Z,220
2023-03-06T11:05:39.102Z,215
2023-03-06T11:06:38.896Z,215
2023-03-06T11:07:39.355Z,205
2023-03-06T11:08:39.324Z,230
2023-03-06T11:09:39.285Z,230
2023-03-06T11:10:39.548Z,215
2023-03-06T11:11:46.894Z,215
2023-03-06T11:12:39.299Z,225
2023-03-06T11:13:39.467Z,255
2023-03-06T11:14:39.458Z,245
2023-03-06T11:15:39.309Z,235
2023-03-06T11:16:39.939Z,265
2023-03-06T11:17:39.221Z,310
2023-03-06T11:18:39.394Z,320
2023-03-06T11:19:39.397Z,320
2023-03-06T11:21:00.841Z,310
2023-03-06T11:21:40.830Z,310
2023-03-06T11:22:38.809Z,315
2023-03-06T11:23:38.556Z,310
2023-03-06T11:24:39.279Z,320
2023-03-06T11:25:38.503Z,330
2023-03-06T11:26:38.721Z,325
2023-03-06T11:27:39.228Z,325
2023-03-06T11:28:39.330Z,325
2023-03-06T11:29:43.859Z,325
2023-03-06T11:30:38.917Z,315
2023-03-06T11:31:39.324Z,280
2023-03-06T11:32:39.853Z,275
2023-03-06T11:33:38.874Z,295
2023-03-06T11:34:38.609Z,315
2023-03-06T11:35:39.310Z,315
2023-03-06T11:36:38.970Z,325
2023-03-06T11:37:38.896Z,340
2023-03-06T11:38:39.052Z,345
2023-03-06T11:39:38.507Z,360
2023-03-06T11:40:38.247Z,375
2023-03-06T11:41:38.489Z,385
2023-03-06T11:42:38.700Z,410
2023-03-06T11:43:38.972Z,415
2023-03-06T11:44:38.679Z,420
2023-03-06T11:45:38.660Z,415
2023-03-06T11:46:39.260Z,395
2023-03-06T11:47:38.631Z,395
2023-03-06T11:48:39.102Z,390
2023-03-06T11:49:38.863Z,385
2023-03-06T11:50:38.850Z,380
2023-03-06T11:51:38.327Z,385
2023-03-06T11:52:38.557Z,390
2023-03-06T11:53:38.351Z,390
2023-03-06T11:54:38.773Z,400
2023-03-06T11:55:38.383Z,400
2023-03-06T11:56:40.663Z,400
2023-03-06T11:57:38.499Z,390
2023-03-06T11:58:38.441Z,385
2023-03-06T11:59:38.715Z,385
2023-03-06T12:00:38.827Z,385
2023-03-06T12:01:38.454Z,380
2023-03-06T12:02:38.503Z,400
2023-03-06T12:03:38.625Z,395
2023-03-06T12:04:38.789Z,415
2023-03-06T12:05:38.525Z,435
2023-03-06T12:06:38.309Z,445
2023-03-06T12:07:38.302Z,435
2023-03-06T12:08:38.398Z,400
2023-03-06T12:09:38.072Z,375
2023-03-06T12:10:38.048Z,370
2023-03-06T12:11:41.142Z,370
2023-03-06T12:12:38.251Z,410
2023-03-06T12:13:38.525Z,385
2023-03-06T12:14:37.985Z,395
2023-03-06T12:15:38.443Z,395
2023-03-06T12:16:38.541Z,375
2023-03-06T12:17:37.636Z,365
2023-03-06T12:18:38.543Z,350
2023-03-06T12:19:37.864Z,330
2023-03-06T12:20:38.537Z,330
2023-03-06T12:21:38.078Z,390
2023-03-06T12:22:40.521Z,385
2023-03-06T12:23:38.026Z,330
2023-03-06T12:24:38.029Z,270
2023-03-06T12:25:38.393Z,285
2023-03-06T12:26:37.992Z,265
2023-03-06T12:27:38.227Z,270
2023-03-06T12:28:37.702Z,285
2023-03-06T12:29:37.971Z,305
2023-03-06T12:30:37.957Z,330
2023-03-06T12:31:38.042Z,360
2023-03-06T12:32:37.732Z,370
2023-03-06T12:33:38.224Z,410
2023-03-06T12:34:38.137Z,385
2023-03-06T12:35:37.960Z,380
2023-03-06T12:36:38.283Z,370
2023-03-06T12:37:38.060Z,350
2023-03-06T12:38:37.818Z,335
2023-03-06T12:39:37.564Z,325
2023-03-06T12:40:38.060Z,315
2023-03-06T12:41:38.020Z,265
2023-03-06T12:42:37.483Z,235
2023-03-06T12:43:39.915Z,225
2023-03-06T12:44:37.554Z,260
2023-03-06T12:45:37.751Z,275
2023-03-06T12:46:37.700Z,275
2023-03-06T12:47:37.901Z,280
2023-03-06T12:48:37.598Z,260
2023-03-06T12:49:42.485Z,255
2023-03-06T12:50:37.628Z,270
2023-03-06T12:51:37.841Z,295
2023-03-06T12:52:40.345Z,300
2023-03-06T12:53:37.723Z,295
2023-03-06T12:54:37.613Z,280
2023-03-06T12:55:37.522Z,275
2023-03-06T12:56:38.312Z,275
2023-03-06T12:57:38.668Z,265
2023-03-06T12:58:38.438Z,290
2023-03-06T12:59:38.380Z,315
2023-03-06T13:00:38.635Z,320
2023-03-06T13:01:38.984Z,320
2023-03-06T13:02:39.010Z,325
2023-03-06T13:03:38.830Z,335
2023-03-06T13:04:38.303Z,340
2023-03-06T13:05:38.277Z,310
2023-03-06T13:06:55.395Z,280
2023-03-06T13:07:38.357Z,265
2023-03-06T13:08:38.878Z,245
2023-03-06T13:09:38.472Z,235
2023-03-06T13:10:38.755Z,235
2023-03-06T13:11:38.195Z,240
2023-03-06T13:12:38.675Z,225
2023-03-06T13:13:38.689Z,210
2023-03-06T13:14:53.982Z,215
2023-03-06T13:15:38.381Z,245
2023-03-06T13:16:38.391Z,270
2023-03-06T13:17:38.122Z,270
2023-03-06T13:18:38.323Z,245
2023-03-06T13:19:38.558Z,215
2023-03-06T13:20:40.472Z,195
2023-03-06T13:21:38.092Z,200
2023-03-06T13:22:38.241Z,210
2023-03-06T13:23:38.859Z,205
2023-03-06T13:24:38.632Z,205
2023-03-06T13:25:40.256Z,200
2023-03-06T13:26:38.176Z,210
2023-03-06T13:27:38.185Z,235
2023-03-06T13:28:38.155Z,255
2023-03-06T13:29:37.888Z,255
2023-03-06T13:30:38.091Z,255
2023-03-06T13:31:38.443Z,265
2023-03-06T13:32:37.814Z,275
2023-03-06T13:33:38.054Z,280
2023-03-06T13:34:37.831Z,280
2023-03-06T13:35:37.637Z,285
2023-03-06T13:36:41.856Z,305
2023-03-06T13:37:37.995Z,310
2023-03-06T13:38:38.063Z,310
2023-03-06T13:39:38.222Z,310
2023-03-06T13:40:38.402Z,290
2023-03-06T13:41:38.209Z,280
2023-03-06T13:42:38.183Z,270
2023-03-06T13:43:39.227Z,260
2023-03-06T13:44:38.170Z,250
2023-03-06T13:45:37.898Z,250
2023-03-06T13:46:38.484Z,245
2023-03-06T13:48:33.535Z,245
2023-03-06T13:48:56.685Z,245
2023-03-06T13:49:44.733Z,245
2023-03-06T13:50:44.633Z,240
2023-03-06T13:51:44.398Z,230
2023-03-06T13:52:44.598Z,225
2023-03-06T13:53:44.140Z,205
2023-03-06T13:54:44.592Z,190
2023-03-06T13:55:44.859Z,175
2023-03-06T13:56:44.061Z,165
2023-03-06T13:57:44.045Z,155
2023-03-06T13:58:44.035Z,155
2023-03-06T13:59:44.010Z,155
2023-03-06T14:00:44.141Z,140
2023-03-06T14:01:44.511Z,130
2023-03-06T14:02:44.505Z,130
2023-03-06T14:03:44.233Z,135
2023-03-06T14:04:44.160Z,130
2023-03-06T14:05:45.443Z,125
2023-03-06T14:06:44.463Z,115
2023-03-06T14:07:44.135Z,120
2023-03-06T14:08:43.881Z,135
2023-03-06T14:09:43.851Z,130
2023-03-06T14:10:43.894Z,135
2023-03-06T14:11:44.723Z,140
2023-03-06T14:12:44.320Z,140
2023-03-06T14:13:56.166Z,135
2023-03-06T14:14:44.045Z,130
2023-03-06T14:15:44.247Z,130
2023-03-06T14:16:58.339Z,135
2023-03-06T14:17:43.812Z,140
2023-03-06T14:18:43.946Z,150
2023-03-06T14:19:43.688Z,165
2023-03-06T14:20:43.893Z,175
2023-03-06T14:21:43.349Z,180
2023-03-06T14:22:43.883Z,185
2023-03-06T14:23:44.099Z,185
2023-03-06T14:24:43.879Z,180
2023-03-06T14:25:43.695Z,175
2023-03-06T14:26:43.786Z,170
2023-03-06T14:27:44.317Z,170
2023-03-06T14:28:44.026Z,165
2023-03-06T14:29:43.868Z,155
2023-03-06T14:30:43.842Z,150